sensor_id;sensor_type;location;lat;lon;timestamp;P1;durP1;ratioP1;P2;durP2;ratioP2
8040;SDS011;4063;48.140;10.250;2023-04-01T00:00:50;2.83;;;1.20;;
8040;SDS011;4063;48.140;10.250;2023-04-01T00:03:17;3.87;;;1.47;;
8040;SDS011;4063;48.140;10.250;2023-04-01T00:05:43;2.30;;;1.13;;
8040;SDS011;4063;48.140;10.250;2023-04-01T00:08:09;1.83;;;1.20;;
8040;SDS011;4063;48.140;10.250;2023-04-01T00:10:35;4.77;;;1.77;;
8040;SDS011;4063;48.140;10.250;2023-04-01T00:13:01;1.97;;;1.17;;
8040;SDS011;4063;48.140;10.250;2023-04-01T00:15:27;4.27;;;1.00;;
8040;SDS011;4063;48.140;10.250;2023-04-01T00:17:53;3.27;;;1.10;;
8040;SDS011;4063;48.140;10.250;2023-04-01T00:20:20;3.80;;;1.30;;
8040;SDS011;4063;48.140;10.250;2023-04-01T00:22:46;2.20;;;1.10;;
8040;SDS011;4063;48.140;10.250;2023-04-01T00:25:12;2.70;;;1.10;;
8040;SDS011;4063;48.140;10.250;2023-04-01T00:27:38;5.33;;;1.40;;
8040;SDS011;4063;48.140;10.250;2023-04-01T00:30:04;4.33;;;1.47;;
8040;SDS011;4063;48.140;10.250;2023-04-01T00:32:31;4.93;;;1.60;;
8040;SDS011;4063;48.140;10.250;2023-04-01T00:34:57;2.77;;;1.23;;
8040;SDS011;4063;48.140;10.250;2023-04-01T00:37:26;4.80;;;1.10;;
8040;SDS011;4063;48.140;10.250;2023-04-01T00:39:53;4.23;;;1.20;;
8040;SDS011;4063;48.140;10.250;2023-04-01T00:42:19;2.67;;;1.17;;
8040;SDS011;4063;48.140;10.250;2023-04-01T00:44:47;4.17;;;1.10;;
8040;SDS011;4063;48.140;10.250;2023-04-01T00:47:13;2.23;;;1.20;;
8040;SDS011;4063;48.140;10.250;2023-04-01T00:49:40;3.73;;;1.13;;
8040;SDS011;4063;48.140;10.250;2023-04-01T00:52:08;3.57;;;1.10;;
8040;SDS011;4063;48.140;10.250;2023-04-01T00:54:36;3.37;;;1.00;;
8040;SDS011;4063;48.140;10.250;2023-04-01T00:57:07;2.13;;;1.00;;
8040;SDS011;4063;48.140;10.250;2023-04-01T00:59:42;3.60;;;1.37;;
8040;SDS011;4063;48.140;10.250;2023-04-01T01:02:10;2.20;;;1.00;;
8040;SDS011;4063;48.140;10.250;2023-04-01T01:04:36;3.00;;;1.00;;
8040;SDS011;4063;48.140;10.250;2023-04-01T01:07:07;1.97;;;0.90;;
8040;SDS011;4063;48.140;10.250;2023-04-01T01:12:13;3.37;;;1.33;;
8040;SDS011;4063;48.140;10.250;2023-04-01T01:14:45;2.97;;;1.20;;
8040;SDS011;4063;48.140;10.250;2023-04-01T01:19:55;2.27;;;1.07;;
8040;SDS011;4063;48.140;10.250;2023-04-01T01:27:32;3.47;;;1.20;;
8040;SDS011;4063;48.140;10.250;2023-04-01T01:30:20;2.23;;;1.13;;
8040;SDS011;4063;48.140;10.250;2023-04-01T01:32:55;2.93;;;1.00;;
8040;SDS011;4063;48.140;10.250;2023-04-01T01:35:35;2.33;;;1.03;;
8040;SDS011;4063;48.140;10.250;2023-04-01T01:38:03;12.10;;;1.37;;
8040;SDS011;4063;48.140;10.250;2023-04-01T01:40:31;1.93;;;1.13;;
8040;SDS011;4063;48.140;10.250;2023-04-01T01:42:59;1.63;;;0.80;;
8040;SDS011;4063;48.140;10.250;2023-04-01T01:45:28;2.50;;;1.00;;
8040;SDS011;4063;48.140;10.250;2023-04-01T01:47:54;4.47;;;1.20;;
8040;SDS011;4063;48.140;10.250;2023-04-01T01:50:22;2.43;;;1.20;;
8040;SDS011;4063;48.140;10.250;2023-04-01T01:52:49;1.30;;;0.83;;
8040;SDS011;4063;48.140;10.250;2023-04-01T01:55:23;0.97;;;0.60;;
8040;SDS011;4063;48.140;10.250;2023-04-01T01:57:51;1.93;;;0.90;;
8040;SDS011;4063;48.140;10.250;2023-04-01T02:00:17;2.63;;;0.80;;
8040;SDS011;4063;48.140;10.250;2023-04-01T02:02:44;2.43;;;0.70;;
8040;SDS011;4063;48.140;10.250;2023-04-01T02:05:11;1.47;;;0.70;;
8040;SDS011;4063;48.140;10.250;2023-04-01T02:07:41;1.50;;;0.90;;
8040;SDS011;4063;48.140;10.250;2023-04-01T02:10:09;1.03;;;0.60;;
8040;SDS011;4063;48.140;10.250;2023-04-01T02:12:35;1.60;;;0.67;;
8040;SDS011;4063;48.140;10.250;2023-04-01T02:15:05;1.17;;;0.70;;
8040;SDS011;4063;48.140;10.250;2023-04-01T02:17:32;0.77;;;0.70;;
8040;SDS011;4063;48.140;10.250;2023-04-01T02:20:00;0.73;;;0.67;;
8040;SDS011;4063;48.140;10.250;2023-04-01T02:22:30;0.80;;;0.80;;
8040;SDS011;4063;48.140;10.250;2023-04-01T02:24:58;0.70;;;0.60;;
8040;SDS011;4063;48.140;10.250;2023-04-01T02:27:25;0.83;;;0.70;;
8040;SDS011;4063;48.140;10.250;2023-04-01T02:29:51;0.60;;;0.60;;
8040;SDS011;4063;48.140;10.250;2023-04-01T02:32:18;0.57;;;0.50;;
8040;SDS011;4063;48.140;10.250;2023-04-01T02:34:44;1.73;;;0.73;;
8040;SDS011;4063;48.140;10.250;2023-04-01T02:37:11;0.80;;;0.80;;
8040;SDS011;4063;48.140;10.250;2023-04-01T02:39:37;1.40;;;0.60;;
8040;SDS011;4063;48.140;10.250;2023-04-01T02:42:03;0.80;;;0.70;;
8040;SDS011;4063;48.140;10.250;2023-04-01T02:44:29;0.97;;;0.73;;
8040;SDS011;4063;48.140;10.250;2023-04-01T02:46:55;0.60;;;0.60;;
8040;SDS011;4063;48.140;10.250;2023-04-01T02:49:21;1.07;;;0.70;;
8040;SDS011;4063;48.140;10.250;2023-04-01T02:51:47;0.63;;;0.57;;
8040;SDS011;4063;48.140;10.250;2023-04-01T02:54:13;1.50;;;0.90;;
8040;SDS011;4063;48.140;10.250;2023-04-01T02:56:39;1.40;;;0.50;;
8040;SDS011;4063;48.140;10.250;2023-04-01T02:59:05;0.87;;;0.53;;
8040;SDS011;4063;48.140;10.250;2023-04-01T03:01:31;0.63;;;0.63;;
8040;SDS011;4063;48.140;10.250;2023-04-01T03:03:57;2.73;;;0.80;;
8040;SDS011;4063;48.140;10.250;2023-04-01T03:06:23;1.20;;;0.80;;
8040;SDS011;4063;48.140;10.250;2023-04-01T03:08:49;0.77;;;0.77;;
8040;SDS011;4063;48.140;10.250;2023-04-01T03:11:15;0.60;;;0.60;;
8040;SDS011;4063;48.140;10.250;2023-04-01T03:13:41;0.60;;;0.60;;
8040;SDS011;4063;48.140;10.250;2023-04-01T03:16:07;0.90;;;0.77;;
8040;SDS011;4063;48.140;10.250;2023-04-01T03:18:33;0.80;;;0.80;;
8040;SDS011;4063;48.140;10.250;2023-04-01T03:21:15;1.17;;;0.87;;
8040;SDS011;4063;48.140;10.250;2023-04-01T03:23:41;3.23;;;1.27;;
8040;SDS011;4063;48.140;10.250;2023-04-01T03:26:08;1.17;;;0.90;;
8040;SDS011;4063;48.140;10.250;2023-04-01T03:28:34;2.03;;;1.00;;
8040;SDS011;4063;48.140;10.250;2023-04-01T03:31:00;1.17;;;1.03;;
8040;SDS011;4063;48.140;10.250;2023-04-01T03:33:26;2.30;;;1.10;;
8040;SDS011;4063;48.140;10.250;2023-04-01T03:35:52;1.93;;;1.03;;
8040;SDS011;4063;48.140;10.250;2023-04-01T03:38:18;6.03;;;1.33;;
8040;SDS011;4063;48.140;10.250;2023-04-01T03:40:44;1.40;;;0.80;;
8040;SDS011;4063;48.140;10.250;2023-04-01T03:43:10;1.57;;;0.97;;
8040;SDS011;4063;48.140;10.250;2023-04-01T03:45:43;2.57;;;1.70;;
8040;SDS011;4063;48.140;10.250;2023-04-01T03:48:10;2.20;;;0.90;;
8040;SDS011;4063;48.140;10.250;2023-04-01T03:50:36;6.33;;;1.20;;
8040;SDS011;4063;48.140;10.250;2023-04-01T03:53:02;2.43;;;1.30;;
8040;SDS011;4063;48.140;10.250;2023-04-01T03:55:28;1.90;;;0.83;;
8040;SDS011;4063;48.140;10.250;2023-04-01T03:57:54;2.27;;;1.03;;
8040;SDS011;4063;48.140;10.250;2023-04-01T04:00:20;2.67;;;1.27;;
8040;SDS011;4063;48.140;10.250;2023-04-01T04:02:46;3.00;;;1.03;;
8040;SDS011;4063;48.140;10.250;2023-04-01T04:05:12;3.43;;;1.47;;
8040;SDS011;4063;48.140;10.250;2023-04-01T04:07:38;1.10;;;1.00;;
8040;SDS011;4063;48.140;10.250;2023-04-01T04:10:04;1.67;;;1.37;;
8040;SDS011;4063;48.140;10.250;2023-04-01T04:12:30;2.70;;;1.30;;
8040;SDS011;4063;48.140;10.250;2023-04-01T04:14:56;2.00;;;1.20;;
8040;SDS011;4063;48.140;10.250;2023-04-01T04:17:22;4.13;;;0.90;;
8040;SDS011;4063;48.140;10.250;2023-04-01T04:19:48;1.33;;;0.93;;
8040;SDS011;4063;48.140;10.250;2023-04-01T04:22:14;3.20;;;1.00;;
8040;SDS011;4063;48.140;10.250;2023-04-01T04:24:40;1.53;;;0.87;;
8040;SDS011;4063;48.140;10.250;2023-04-01T04:27:06;1.33;;;1.00;;
8040;SDS011;4063;48.140;10.250;2023-04-01T04:29:32;2.77;;;1.00;;
8040;SDS011;4063;48.140;10.250;2023-04-01T04:31:58;2.43;;;1.30;;
8040;SDS011;4063;48.140;10.250;2023-04-01T04:34:24;2.93;;;1.00;;
8040;SDS011;4063;48.140;10.250;2023-04-01T04:36:50;1.47;;;0.93;;
8040;SDS011;4063;48.140;10.250;2023-04-01T04:39:16;2.70;;;1.10;;
8040;SDS011;4063;48.140;10.250;2023-04-01T04:41:42;2.03;;;1.27;;
8040;SDS011;4063;48.140;10.250;2023-04-01T04:44:08;3.10;;;1.20;;
8040;SDS011;4063;48.140;10.250;2023-04-01T04:46:34;2.97;;;1.20;;
8040;SDS011;4063;48.140;10.250;2023-04-01T04:49:02;1.30;;;1.00;;
8040;SDS011;4063;48.140;10.250;2023-04-01T04:51:28;3.37;;;1.30;;
8040;SDS011;4063;48.140;10.250;2023-04-01T04:53:54;4.47;;;1.17;;
8040;SDS011;4063;48.140;10.250;2023-04-01T04:56:20;3.10;;;1.00;;
8040;SDS011;4063;48.140;10.250;2023-04-01T04:58:46;1.67;;;0.90;;
8040;SDS011;4063;48.140;10.250;2023-04-01T05:01:13;3.80;;;1.27;;
8040;SDS011;4063;48.140;10.250;2023-04-01T05:03:40;1.20;;;0.90;;
8040;SDS011;4063;48.140;10.250;2023-04-01T05:06:07;1.93;;;0.90;;
8040;SDS011;4063;48.140;10.250;2023-04-01T05:08:33;4.17;;;1.50;;
8040;SDS011;4063;48.140;10.250;2023-04-01T05:11:00;3.97;;;1.10;;
8040;SDS011;4063;48.140;10.250;2023-04-01T05:13:26;6.83;;;1.43;;
8040;SDS011;4063;48.140;10.250;2023-04-01T05:15:52;2.33;;;1.10;;
8040;SDS011;4063;48.140;10.250;2023-04-01T05:18:18;4.33;;;1.33;;
8040;SDS011;4063;48.140;10.250;2023-04-01T05:20:51;2.40;;;1.10;;
8040;SDS011;4063;48.140;10.250;2023-04-01T05:23:17;4.07;;;1.43;;
8040;SDS011;4063;48.140;10.250;2023-04-01T05:25:45;2.90;;;0.87;;
8040;SDS011;4063;48.140;10.250;2023-04-01T05:28:11;3.50;;;1.23;;
8040;SDS011;4063;48.140;10.250;2023-04-01T05:30:39;4.50;;;1.50;;
8040;SDS011;4063;48.140;10.250;2023-04-01T05:33:06;3.50;;;1.63;;
8040;SDS011;4063;48.140;10.250;2023-04-01T05:35:31;5.07;;;1.20;;
8040;SDS011;4063;48.140;10.250;2023-04-01T05:37:57;4.63;;;1.70;;
8040;SDS011;4063;48.140;10.250;2023-04-01T05:40:23;6.63;;;1.37;;
8040;SDS011;4063;48.140;10.250;2023-04-01T05:42:50;2.33;;;1.20;;
8040;SDS011;4063;48.140;10.250;2023-04-01T05:45:16;1.80;;;1.10;;
8040;SDS011;4063;48.140;10.250;2023-04-01T05:47:42;2.77;;;1.10;;
8040;SDS011;4063;48.140;10.250;2023-04-01T05:50:08;4.17;;;1.40;;
8040;SDS011;4063;48.140;10.250;2023-04-01T05:52:35;2.57;;;1.00;;
8040;SDS011;4063;48.140;10.250;2023-04-01T05:55:02;2.73;;;1.17;;
8040;SDS011;4063;48.140;10.250;2023-04-01T05:57:28;3.00;;;1.63;;
8040;SDS011;4063;48.140;10.250;2023-04-01T05:59:54;2.80;;;1.30;;
8040;SDS011;4063;48.140;10.250;2023-04-01T06:02:20;2.93;;;1.33;;
8040;SDS011;4063;48.140;10.250;2023-04-01T06:04:46;2.50;;;1.10;;
8040;SDS011;4063;48.140;10.250;2023-04-01T06:07:15;3.47;;;1.33;;
8040;SDS011;4063;48.140;10.250;2023-04-01T06:09:42;2.60;;;1.20;;
8040;SDS011;4063;48.140;10.250;2023-04-01T06:12:16;2.47;;;1.20;;
8040;SDS011;4063;48.140;10.250;2023-04-01T06:14:51;3.17;;;1.27;;
8040;SDS011;4063;48.140;10.250;2023-04-01T06:22:20;2.63;;;1.07;;
8040;SDS011;4063;48.140;10.250;2023-04-01T06:37:23;2.23;;;1.00;;
8040;SDS011;4063;48.140;10.250;2023-04-01T06:50:02;1.70;;;1.23;;
8040;SDS011;4063;48.140;10.250;2023-04-01T06:52:34;1.47;;;1.00;;
8040;SDS011;4063;48.140;10.250;2023-04-01T06:57:44;1.67;;;0.90;;
8040;SDS011;4063;48.140;10.250;2023-04-01T07:00:31;3.10;;;1.10;;
8040;SDS011;4063;48.140;10.250;2023-04-01T07:03:16;2.93;;;1.10;;
8040;SDS011;4063;48.140;10.250;2023-04-01T07:05:45;1.80;;;0.80;;
8040;SDS011;4063;48.140;10.250;2023-04-01T07:08:18;1.63;;;0.90;;
8040;SDS011;4063;48.140;10.250;2023-04-01T07:10:53;1.03;;;0.87;;
8040;SDS011;4063;48.140;10.250;2023-04-01T07:13:26;1.67;;;0.83;;
8040;SDS011;4063;48.140;10.250;2023-04-01T07:16:08;2.20;;;1.17;;
8040;SDS011;4063;48.140;10.250;2023-04-01T07:18:41;2.33;;;0.87;;
8040;SDS011;4063;48.140;10.250;2023-04-01T07:21:20;1.83;;;0.97;;
8040;SDS011;4063;48.140;10.250;2023-04-01T07:23:47;2.33;;;1.33;;
8040;SDS011;4063;48.140;10.250;2023-04-01T07:26:20;2.13;;;0.70;;
8040;SDS011;4063;48.140;10.250;2023-04-01T07:28:46;2.13;;;1.00;;
8040;SDS011;4063;48.140;10.250;2023-04-01T07:31:22;1.87;;;0.90;;
8040;SDS011;4063;48.140;10.250;2023-04-01T07:36:38;1.57;;;0.83;;
8040;SDS011;4063;48.140;10.250;2023-04-01T07:46:51;1.10;;;0.83;;
8040;SDS011;4063;48.140;10.250;2023-04-01T07:49:27;1.10;;;0.67;;
8040;SDS011;4063;48.140;10.250;2023-04-01T07:52:10;0.60;;;0.53;;
8040;SDS011;4063;48.140;10.250;2023-04-01T07:54:49;0.93;;;0.77;;
8040;SDS011;4063;48.140;10.250;2023-04-01T07:57:34;4.37;;;0.80;;
8040;SDS011;4063;48.140;10.250;2023-04-01T08:00:19;2.03;;;0.63;;
8040;SDS011;4063;48.140;10.250;2023-04-01T08:05:25;1.27;;;0.60;;
8040;SDS011;4063;48.140;10.250;2023-04-01T08:10:19;1.70;;;0.70;;
8040;SDS011;4063;48.140;10.250;2023-04-01T08:13:07;0.93;;;0.50;;
8040;SDS011;4063;48.140;10.250;2023-04-01T08:15:38;5.13;;;1.10;;
8040;SDS011;4063;48.140;10.250;2023-04-01T08:18:16;1.80;;;0.80;;
8040;SDS011;4063;48.140;10.250;2023-04-01T08:20:48;1.73;;;0.93;;
8040;SDS011;4063;48.140;10.250;2023-04-01T08:23:24;1.60;;;0.63;;
8040;SDS011;4063;48.140;10.250;2023-04-01T08:25:53;0.50;;;0.50;;
8040;SDS011;4063;48.140;10.250;2023-04-01T08:28:29;0.93;;;0.80;;
8040;SDS011;4063;48.140;10.250;2023-04-01T08:30:57;0.97;;;0.70;;
8040;SDS011;4063;48.140;10.250;2023-04-01T08:33:25;1.30;;;0.80;;
8040;SDS011;4063;48.140;10.250;2023-04-01T08:38:31;0.73;;;0.60;;
8040;SDS011;4063;48.140;10.250;2023-04-01T08:40:59;0.67;;;0.63;;
8040;SDS011;4063;48.140;10.250;2023-04-01T09:24:40;2.90;;;0.80;;
8040;SDS011;4063;48.140;10.250;2023-04-01T09:27:13;2.87;;;0.50;;
8040;SDS011;4063;48.140;10.250;2023-04-01T09:50:13;0.60;;;0.60;;
8040;SDS011;4063;48.140;10.250;2023-04-01T10:22:21;1.63;;;0.40;;
8040;SDS011;4063;48.140;10.250;2023-04-01T10:24:53;0.60;;;0.60;;
8040;SDS011;4063;48.140;10.250;2023-04-01T10:30:26;0.60;;;0.60;;
8040;SDS011;4063;48.140;10.250;2023-04-01T10:38:40;0.60;;;0.60;;
8040;SDS011;4063;48.140;10.250;2023-04-01T10:41:34;0.37;;;0.37;;
8040;SDS011;4063;48.140;10.250;2023-04-01T10:52:02;0.50;;;0.50;;
8040;SDS011;4063;48.140;10.250;2023-04-01T10:54:36;0.77;;;0.60;;
8040;SDS011;4063;48.140;10.250;2023-04-01T11:02:42;0.67;;;0.50;;
8040;SDS011;4063;48.140;10.250;2023-04-01T11:21:04;0.57;;;0.57;;
8040;SDS011;4063;48.140;10.250;2023-04-01T11:23:45;0.50;;;0.50;;
8040;SDS011;4063;48.140;10.250;2023-04-01T11:26:20;0.60;;;0.60;;
8040;SDS011;4063;48.140;10.250;2023-04-01T11:39:27;0.50;;;0.50;;
8040;SDS011;4063;48.140;10.250;2023-04-01T11:44:23;0.60;;;0.50;;
8040;SDS011;4063;48.140;10.250;2023-04-01T11:52:56;0.60;;;0.60;;
8040;SDS011;4063;48.140;10.250;2023-04-01T12:13:14;1.17;;;0.87;;
8040;SDS011;4063;48.140;10.250;2023-04-01T12:39:22;0.80;;;0.80;;
8040;SDS011;4063;48.140;10.250;2023-04-01T12:42:04;1.10;;;1.00;;
8040;SDS011;4063;48.140;10.250;2023-04-01T12:55:27;0.63;;;0.63;;
8040;SDS011;4063;48.140;10.250;2023-04-01T12:58:03;0.80;;;0.80;;
8040;SDS011;4063;48.140;10.250;2023-04-01T13:11:05;0.80;;;0.80;;
8040;SDS011;4063;48.140;10.250;2023-04-01T13:21:58;1.87;;;0.90;;
8040;SDS011;4063;48.140;10.250;2023-04-01T13:26:53;0.80;;;0.80;;
8040;SDS011;4063;48.140;10.250;2023-04-01T13:40:00;1.40;;;1.10;;
8040;SDS011;4063;48.140;10.250;2023-04-01T13:42:29;0.80;;;0.80;;
8040;SDS011;4063;48.140;10.250;2023-04-01T13:45:00;2.33;;;0.90;;
8040;SDS011;4063;48.140;10.250;2023-04-01T13:47:32;1.80;;;0.60;;
8040;SDS011;4063;48.140;10.250;2023-04-01T13:52:59;1.10;;;0.90;;
8040;SDS011;4063;48.140;10.250;2023-04-01T14:05:48;0.60;;;0.60;;
8040;SDS011;4063;48.140;10.250;2023-04-01T14:08:20;0.70;;;0.70;;
8040;SDS011;4063;48.140;10.250;2023-04-01T14:16:03;0.70;;;0.70;;
8040;SDS011;4063;48.140;10.250;2023-04-01T14:24:00;0.67;;;0.67;;
8040;SDS011;4063;48.140;10.250;2023-04-01T14:39:29;0.40;;;0.40;;
8040;SDS011;4063;48.140;10.250;2023-04-01T14:44:38;0.67;;;0.50;;
8040;SDS011;4063;48.140;10.250;2023-04-01T14:47:21;0.70;;;0.70;;
8040;SDS011;4063;48.140;10.250;2023-04-01T14:49:49;0.50;;;0.40;;
8040;SDS011;4063;48.140;10.250;2023-04-01T14:52:28;0.60;;;0.60;;
8040;SDS011;4063;48.140;10.250;2023-04-01T14:54:57;4.00;;;0.60;;
8040;SDS011;4063;48.140;10.250;2023-04-01T14:57:27;0.67;;;0.60;;
8040;SDS011;4063;48.140;10.250;2023-04-01T14:59:59;0.70;;;0.70;;
8040;SDS011;4063;48.140;10.250;2023-04-01T15:02:45;1.40;;;0.70;;
8040;SDS011;4063;48.140;10.250;2023-04-01T15:05:25;0.57;;;0.50;;
8040;SDS011;4063;48.140;10.250;2023-04-01T15:08:08;0.90;;;0.53;;
8040;SDS011;4063;48.140;10.250;2023-04-01T15:10:48;0.60;;;0.60;;
8040;SDS011;4063;48.140;10.250;2023-04-01T15:18:23;0.73;;;0.70;;
8040;SDS011;4063;48.140;10.250;2023-04-01T15:21:03;0.90;;;0.80;;
8040;SDS011;4063;48.140;10.250;2023-04-01T15:26:09;0.93;;;0.63;;
8040;SDS011;4063;48.140;10.250;2023-04-01T15:36:07;1.03;;;0.90;;
8040;SDS011;4063;48.140;10.250;2023-04-01T15:38:53;0.93;;;0.70;;
8040;SDS011;4063;48.140;10.250;2023-04-01T15:41:24;0.60;;;0.60;;
8040;SDS011;4063;48.140;10.250;2023-04-01T15:43:53;0.70;;;0.70;;
8040;SDS011;4063;48.140;10.250;2023-04-01T15:54:31;0.97;;;0.97;;
8040;SDS011;4063;48.140;10.250;2023-04-01T16:02:43;0.80;;;0.80;;
8040;SDS011;4063;48.140;10.250;2023-04-01T16:13:14;1.47;;;0.90;;
8040;SDS011;4063;48.140;10.250;2023-04-01T16:16:04;1.33;;;0.83;;
8040;SDS011;4063;48.140;10.250;2023-04-01T16:21:03;1.23;;;0.80;;
8040;SDS011;4063;48.140;10.250;2023-04-01T16:26:37;1.67;;;0.80;;
8040;SDS011;4063;48.140;10.250;2023-04-01T16:29:27;1.03;;;0.93;;
8040;SDS011;4063;48.140;10.250;2023-04-01T16:31:55;3.60;;;1.20;;
8040;SDS011;4063;48.140;10.250;2023-04-01T16:37:10;4.53;;;1.00;;
8040;SDS011;4063;48.140;10.250;2023-04-01T16:44:44;1.00;;;0.77;;
8040;SDS011;4063;48.140;10.250;2023-04-01T16:47:12;1.00;;;0.80;;
8040;SDS011;4063;48.140;10.250;2023-04-01T16:49:41;1.10;;;0.70;;
8040;SDS011;4063;48.140;10.250;2023-04-01T17:07:05;0.63;;;0.63;;
8040;SDS011;4063;48.140;10.250;2023-04-01T17:12:08;1.20;;;0.90;;
8040;SDS011;4063;48.140;10.250;2023-04-01T17:19:42;1.97;;;0.80;;
8040;SDS011;4063;48.140;10.250;2023-04-01T17:35:33;3.00;;;1.13;;
8040;SDS011;4063;48.140;10.250;2023-04-01T17:48:22;0.77;;;0.77;;
8040;SDS011;4063;48.140;10.250;2023-04-01T17:50:53;1.47;;;1.17;;
8040;SDS011;4063;48.140;10.250;2023-04-01T17:56:28;1.17;;;0.90;;
8040;SDS011;4063;48.140;10.250;2023-04-01T18:01:15;1.47;;;1.00;;
8040;SDS011;4063;48.140;10.250;2023-04-01T18:06:25;3.07;;;1.03;;
8040;SDS011;4063;48.140;10.250;2023-04-01T18:11:25;0.90;;;0.50;;
8040;SDS011;4063;48.140;10.250;2023-04-01T18:14:00;0.83;;;0.70;;
8040;SDS011;4063;48.140;10.250;2023-04-01T18:16:37;0.80;;;0.80;;
8040;SDS011;4063;48.140;10.250;2023-04-01T18:21:48;0.70;;;0.70;;
8040;SDS011;4063;48.140;10.250;2023-04-01T18:24:28;1.40;;;0.70;;
8040;SDS011;4063;48.140;10.250;2023-04-01T18:27:01;1.00;;;0.83;;
8040;SDS011;4063;48.140;10.250;2023-04-01T18:34:53;0.60;;;0.60;;
8040;SDS011;4063;48.140;10.250;2023-04-01T18:37:26;1.77;;;0.93;;
8040;SDS011;4063;48.140;10.250;2023-04-01T18:42:50;0.73;;;0.73;;
8040;SDS011;4063;48.140;10.250;2023-04-01T18:45:30;0.80;;;0.80;;
8040;SDS011;4063;48.140;10.250;2023-04-01T18:48:30;2.80;;;0.90;;
8040;SDS011;4063;48.140;10.250;2023-04-01T18:51:16;2.33;;;1.07;;
8040;SDS011;4063;48.140;10.250;2023-04-01T18:53:55;1.20;;;1.00;;
8040;SDS011;4063;48.140;10.250;2023-04-01T18:56:24;0.87;;;0.80;;
8040;SDS011;4063;48.140;10.250;2023-04-01T18:58:54;0.70;;;0.70;;
8040;SDS011;4063;48.140;10.250;2023-04-01T19:09:14;2.67;;;1.03;;
8040;SDS011;4063;48.140;10.250;2023-04-01T19:11:44;0.77;;;0.70;;
8040;SDS011;4063;48.140;10.250;2023-04-01T19:14:41;1.53;;;1.00;;
8040;SDS011;4063;48.140;10.250;2023-04-01T19:19:54;0.80;;;0.80;;
8040;SDS011;4063;48.140;10.250;2023-04-01T19:22:34;1.47;;;0.93;;
8040;SDS011;4063;48.140;10.250;2023-04-01T19:25:15;1.70;;;1.10;;
8040;SDS011;4063;48.140;10.250;2023-04-01T19:27:57;0.80;;;0.80;;
8040;SDS011;4063;48.140;10.250;2023-04-01T19:33:15;1.77;;;1.10;;
8040;SDS011;4063;48.140;10.250;2023-04-01T19:35:49;0.80;;;0.80;;
8040;SDS011;4063;48.140;10.250;2023-04-01T19:38:20;0.80;;;0.80;;
8040;SDS011;4063;48.140;10.250;2023-04-01T19:51:16;1.13;;;1.07;;
8040;SDS011;4063;48.140;10.250;2023-04-01T19:58:48;1.40;;;1.10;;
8040;SDS011;4063;48.140;10.250;2023-04-01T20:01:27;1.33;;;1.10;;
8040;SDS011;4063;48.140;10.250;2023-04-01T20:04:01;2.47;;;1.20;;
8040;SDS011;4063;48.140;10.250;2023-04-01T20:06:33;1.10;;;1.00;;
8040;SDS011;4063;48.140;10.250;2023-04-01T20:09:25;1.30;;;1.17;;
8040;SDS011;4063;48.140;10.250;2023-04-01T20:14:52;0.93;;;0.93;;
8040;SDS011;4063;48.140;10.250;2023-04-01T20:24:50;2.07;;;1.00;;
8040;SDS011;4063;48.140;10.250;2023-04-01T20:27:18;1.07;;;0.93;;
8040;SDS011;4063;48.140;10.250;2023-04-01T20:29:54;1.80;;;1.30;;
8040;SDS011;4063;48.140;10.250;2023-04-01T20:32:38;2.87;;;1.20;;
8040;SDS011;4063;48.140;10.250;2023-04-01T20:35:17;2.93;;;1.40;;
8040;SDS011;4063;48.140;10.250;2023-04-01T20:40:17;1.60;;;1.30;;
8040;SDS011;4063;48.140;10.250;2023-04-01T20:42:59;1.80;;;1.20;;
8040;SDS011;4063;48.140;10.250;2023-04-01T20:50:28;1.20;;;1.10;;
8040;SDS011;4063;48.140;10.250;2023-04-01T20:56:08;2.43;;;1.33;;
8040;SDS011;4063;48.140;10.250;2023-04-01T20:58:09;1.87;;;1.40;;
8040;SDS011;4063;48.140;10.250;2023-04-01T21:00:40;2.80;;;1.30;;
8040;SDS011;4063;48.140;10.250;2023-04-01T21:03:13;1.77;;;1.20;;
8040;SDS011;4063;48.140;10.250;2023-04-01T21:05:59;1.80;;;1.23;;
8040;SDS011;4063;48.140;10.250;2023-04-01T21:13:47;1.57;;;1.30;;
8040;SDS011;4063;48.140;10.250;2023-04-01T21:24:48;1.90;;;1.10;;
8040;SDS011;4063;48.140;10.250;2023-04-01T21:27:39;5.17;;;1.23;;
8040;SDS011;4063;48.140;10.250;2023-04-01T21:30:22;2.67;;;1.53;;
8040;SDS011;4063;48.140;10.250;2023-04-01T21:35:42;1.20;;;1.10;;
8040;SDS011;4063;48.140;10.250;2023-04-01T21:41:08;2.20;;;1.30;;
8040;SDS011;4063;48.140;10.250;2023-04-01T21:49:01;2.77;;;1.40;;
8040;SDS011;4063;48.140;10.250;2023-04-01T21:51:40;1.03;;;1.00;;
8040;SDS011;4063;48.140;10.250;2023-04-01T22:02:34;2.07;;;1.40;;
8040;SDS011;4063;48.140;10.250;2023-04-01T22:11:23;2.60;;;1.60;;
8040;SDS011;4063;48.140;10.250;2023-04-01T22:15:52;3.87;;;2.73;;
8040;SDS011;4063;48.140;10.250;2023-04-01T22:18:30;2.90;;;1.60;;
8040;SDS011;4063;48.140;10.250;2023-04-01T22:21:19;2.73;;;1.40;;
8040;SDS011;4063;48.140;10.250;2023-04-01T22:23:56;1.80;;;1.40;;
8040;SDS011;4063;48.140;10.250;2023-04-01T22:26:34;3.07;;;1.33;;
8040;SDS011;4063;48.140;10.250;2023-04-01T22:31:34;1.57;;;1.20;;
8040;SDS011;4063;48.140;10.250;2023-04-01T22:34:06;1.70;;;1.10;;
8040;SDS011;4063;48.140;10.250;2023-04-01T22:44:52;2.50;;;1.23;;
8040;SDS011;4063;48.140;10.250;2023-04-01T22:49:53;1.40;;;1.20;;
8040;SDS011;4063;48.140;10.250;2023-04-01T22:54:56;2.83;;;1.27;;
8040;SDS011;4063;48.140;10.250;2023-04-01T22:57:33;1.50;;;1.20;;
8040;SDS011;4063;48.140;10.250;2023-04-01T23:02:33;1.90;;;1.20;;
8040;SDS011;4063;48.140;10.250;2023-04-01T23:05:02;1.40;;;1.30;;
8040;SDS011;4063;48.140;10.250;2023-04-01T23:10:27;0.87;;;0.87;;
8040;SDS011;4063;48.140;10.250;2023-04-01T23:12:57;4.00;;;1.47;;
8040;SDS011;4063;48.140;10.250;2023-04-01T23:15:23;1.90;;;1.20;;
8040;SDS011;4063;48.140;10.250;2023-04-01T23:20:47;1.30;;;0.93;;
8040;SDS011;4063;48.140;10.250;2023-04-01T23:28:39;1.30;;;1.20;;
8040;SDS011;4063;48.140;10.250;2023-04-01T23:33:54;1.50;;;1.37;;
8040;SDS011;4063;48.140;10.250;2023-04-01T23:36:21;3.27;;;1.53;;
8040;SDS011;4063;48.140;10.250;2023-04-01T23:38:47;1.30;;;1.20;;
8040;SDS011;4063;48.140;10.250;2023-04-01T23:41:25;2.10;;;1.37;;
8040;SDS011;4063;48.140;10.250;2023-04-01T23:43:57;4.53;;;1.30;;
8040;SDS011;4063;48.140;10.250;2023-04-01T23:46:24;4.00;;;1.50;;
8040;SDS011;4063;48.140;10.250;2023-04-01T23:48:50;1.37;;;1.27;;
8040;SDS011;4063;48.140;10.250;2023-04-01T23:51:27;1.73;;;1.37;;
8040;SDS011;4063;48.140;10.250;2023-04-01T23:53:58;1.93;;;1.30;;
8040;SDS011;4063;48.140;10.250;2023-04-01T23:59:16;1.40;;;1.30;;
